createdAt,value
2023-10-30T00:01:07.277Z,1.80
2023-10-30T00:03:37.951Z,1.00
2023-10-30T00:06:08.146Z,1.50
2023-10-30T00:08:41.427Z,1.70
2023-10-30T00:11:10.763Z,1.25
2023-10-30T00:13:42.873Z,1.42
2023-10-30T00:16:12.827Z,1.40
2023-10-30T00:18:43.244Z,1.45
2023-10-30T00:21:12.498Z,1.30
2023-10-30T00:23:41.548Z,1.38
2023-10-30T00:26:10.605Z,1.63
2023-10-30T00:28:40.597Z,1.48
2023-10-30T00:31:09.491Z,1.45
2023-10-30T00:33:38.427Z,1.92
2023-10-30T00:36:09.674Z,1.35
2023-10-30T00:38:38.618Z,1.50
2023-10-30T00:41:11.738Z,1.27
2023-10-30T00:43:40.936Z,1.60
2023-10-30T00:46:10.096Z,1.60
2023-10-30T00:48:39.284Z,1.70
2023-10-30T00:51:10.014Z,1.83
2023-10-30T00:53:38.862Z,1.42
2023-10-30T00:56:08.226Z,1.40
2023-10-30T00:58:37.225Z,1.63
2023-10-30T01:01:06.152Z,1.25
2023-10-30T01:03:35.830Z,1.70
2023-10-30T01:06:05.663Z,1.10
2023-10-30T01:08:36.376Z,1.95
2023-10-30T01:11:05.718Z,1.80
2023-10-30T01:13:34.863Z,1.48
2023-10-30T01:16:03.753Z,1.40
2023-10-30T01:18:32.769Z,1.63
2023-10-30T01:21:02.034Z,1.60
2023-10-30T01:23:31.028Z,1.42
2023-10-30T01:26:01.174Z,1.30
2023-10-30T01:28:30.420Z,1.30
2023-10-30T01:30:59.326Z,1.45
2023-10-30T01:33:29.010Z,1.73
2023-10-30T01:35:58.412Z,1.60
2023-10-30T01:38:27.773Z,1.15
2023-10-30T01:40:57.080Z,1.88
2023-10-30T01:43:34.168Z,1.42
2023-10-30T01:46:03.328Z,1.95
2023-10-30T01:48:35.273Z,1.40
2023-10-30T01:51:07.416Z,1.92
2023-10-30T01:53:37.318Z,1.33
2023-10-30T01:56:07.319Z,1.50
2023-10-30T01:58:37.763Z,1.63
2023-10-30T02:01:07.144Z,1.70
2023-10-30T02:03:39.591Z,1.90
2023-10-30T02:06:09.496Z,1.50
2023-10-30T02:08:37.765Z,1.60
2023-10-30T02:11:06.552Z,1.27
2023-10-30T02:13:36.919Z,1.35
2023-10-30T02:16:07.086Z,1.73
2023-10-30T02:18:36.108Z,1.80
2023-10-30T02:21:07.689Z,1.67
2023-10-30T02:23:36.773Z,1.52
2023-10-30T02:26:07.209Z,1.50
2023-10-30T02:28:36.517Z,0.93
2023-10-30T02:31:05.558Z,1.40
2023-10-30T02:33:34.522Z,1.40
2023-10-30T02:36:03.471Z,1.30
2023-10-30T02:38:32.427Z,1.45
2023-10-30T02:41:01.715Z,1.35
2023-10-30T02:43:32.236Z,1.70
2023-10-30T02:46:01.363Z,1.08
2023-10-30T02:48:31.863Z,1.40
2023-10-30T02:51:00.906Z,1.38
2023-10-30T02:53:29.820Z,1.50
2023-10-30T02:55:58.919Z,1.42
2023-10-30T02:58:27.814Z,1.40
2023-10-30T03:00:58.727Z,1.10
2023-10-30T03:03:27.705Z,1.38
2023-10-30T03:05:57.144Z,1.90
2023-10-30T03:08:26.374Z,1.55
2023-10-30T03:10:55.573Z,1.23
2023-10-30T03:13:24.494Z,1.50
2023-10-30T03:15:53.420Z,1.40
2023-10-30T03:18:23.787Z,1.40
2023-10-30T03:20:53.215Z,1.50
2023-10-30T03:23:22.249Z,1.70
2023-10-30T03:25:52.001Z,1.45
2023-10-30T03:28:21.010Z,1.67
2023-10-30T03:30:49.860Z,1.50
2023-10-30T03:33:21.650Z,1.60
2023-10-30T03:35:52.184Z,1.48
2023-10-30T03:38:21.022Z,1.63
2023-10-30T03:40:49.872Z,1.30
2023-10-30T03:43:18.660Z,1.80
2023-10-30T03:45:47.854Z,1.75
2023-10-30T03:48:16.983Z,1.50
2023-10-30T03:50:49.868Z,1.42
2023-10-30T03:53:20.470Z,1.67
2023-10-30T03:55:49.275Z,1.75
2023-10-30T03:58:18.194Z,1.30
2023-10-30T04:00:47.398Z,1.80
2023-10-30T04:03:16.375Z,1.10
2023-10-30T04:05:45.275Z,1.60
2023-10-30T04:08:14.499Z,1.73
2023-10-30T04:10:44.751Z,1.20
2023-10-30T04:13:13.567Z,1.42
2023-10-30T04:15:42.775Z,1.20
2023-10-30T04:18:11.849Z,1.20
2023-10-30T04:20:40.903Z,1.55
2023-10-30T04:23:09.857Z,1.27
2023-10-30T04:25:39.222Z,1.65
2023-10-30T04:28:09.610Z,1.55
2023-10-30T04:30:38.879Z,1.90
2023-10-30T04:33:07.925Z,1.60
2023-10-30T04:35:36.747Z,1.40
2023-10-30T04:38:06.245Z,1.48
2023-10-30T04:40:35.377Z,1.45
2023-10-30T04:43:04.353Z,1.05
2023-10-30T04:45:35.087Z,1.35
2023-10-30T04:48:04.302Z,1.15
2023-10-30T04:50:33.700Z,1.55
2023-10-30T04:53:02.669Z,1.80
2023-10-30T04:55:31.537Z,1.48
2023-10-30T04:58:00.387Z,1.30
2023-10-30T05:00:29.486Z,1.67
2023-10-30T05:02:59.731Z,1.58
2023-10-30T05:05:28.745Z,1.85
2023-10-30T05:07:57.817Z,1.15
2023-10-30T05:10:26.574Z,1.33
2023-10-30T05:12:55.882Z,1.63
2023-10-30T05:15:25.378Z,1.60
2023-10-30T05:17:54.343Z,0.95
2023-10-30T05:20:24.803Z,1.40
2023-10-30T05:22:53.683Z,1.50
2023-10-30T05:25:35.849Z,1.35
2023-10-30T05:28:11.637Z,1.42
2023-10-30T05:30:41.186Z,1.70
2023-10-30T05:33:10.404Z,1.70
2023-10-30T05:35:40.636Z,1.75
2023-10-30T05:38:09.629Z,2.05
2023-10-30T05:40:39.130Z,1.80
2023-10-30T05:43:07.989Z,1.80
2023-10-30T05:45:37.122Z,1.77
2023-10-30T05:48:07.024Z,1.65
2023-10-30T05:50:35.847Z,2.10
2023-10-30T05:53:06.570Z,1.95
2023-10-30T05:55:35.725Z,2.10
2023-10-30T05:58:05.003Z,1.70
2023-10-30T06:00:33.970Z,1.85
2023-10-30T06:03:03.083Z,1.42
2023-10-30T06:05:32.247Z,1.90
2023-10-30T06:08:01.885Z,1.85
2023-10-30T06:10:32.367Z,2.55
2023-10-30T06:13:01.359Z,1.83
2023-10-30T06:15:30.295Z,2.00
2023-10-30T06:17:59.215Z,2.45
2023-10-30T06:20:28.547Z,2.50
2023-10-30T06:23:00.888Z,2.72
2023-10-30T06:25:29.792Z,2.33
2023-10-30T06:28:00.402Z,2.22
2023-10-30T06:30:29.486Z,2.50
2023-10-30T06:32:59.254Z,1.88
2023-10-30T06:35:28.195Z,2.45
2023-10-30T06:37:57.070Z,2.40
2023-10-30T06:40:25.861Z,2.20
2023-10-30T06:42:54.716Z,2.35
2023-10-30T06:45:25.115Z,2.75
2023-10-30T06:47:54.619Z,2.70
2023-10-30T06:50:23.686Z,2.42
2023-10-30T06:52:53.023Z,2.67
2023-10-30T06:55:22.102Z,2.70
2023-10-30T06:57:51.069Z,3.58
2023-10-30T07:00:20.883Z,2.65
2023-10-30T07:02:51.135Z,2.72
2023-10-30T07:05:20.828Z,2.45
2023-10-30T07:07:50.135Z,2.60
2023-10-30T07:10:19.264Z,2.50
2023-10-30T07:12:48.308Z,2.88
2023-10-30T07:15:17.783Z,2.28
2023-10-30T07:17:46.695Z,2.40
2023-10-30T07:20:17.557Z,2.72
2023-10-30T07:22:46.257Z,2.38
2023-10-30T07:25:15.118Z,2.53
2023-10-30T07:27:44.093Z,2.65
2023-10-30T07:30:14.479Z,2.17
2023-10-30T07:32:45.001Z,2.47
2023-10-30T07:35:14.281Z,2.22
2023-10-30T07:37:44.792Z,2.55
2023-10-30T07:40:14.969Z,2.28
2023-10-30T07:42:44.893Z,2.50
2023-10-30T07:45:14.017Z,2.35
2023-10-30T07:47:44.758Z,2.97
2023-10-30T07:50:13.868Z,2.65
2023-10-30T07:52:44.102Z,2.65
2023-10-30T07:55:13.022Z,2.55
2023-10-30T07:57:43.773Z,2.30
2023-10-30T08:00:14.274Z,2.53
2023-10-30T08:02:43.516Z,3.10
2023-10-30T08:05:12.387Z,2.25
2023-10-30T08:07:41.707Z,2.33
2023-10-30T08:10:13.123Z,2.28
2023-10-30T08:12:42.509Z,2.63
2023-10-30T08:15:11.628Z,2.30
2023-10-30T08:17:40.544Z,2.53
2023-10-30T08:20:10.968Z,2.08
2023-10-30T08:22:39.941Z,2.15
2023-10-30T08:25:09.135Z,2.33
2023-10-30T08:27:39.718Z,2.25
2023-10-30T08:30:09.788Z,2.10
2023-10-30T08:32:40.659Z,2.00
2023-10-30T08:35:10.466Z,1.70
2023-10-30T08:37:39.517Z,1.52
2023-10-30T08:40:09.575Z,1.80
2023-10-30T08:42:40.202Z,1.60
2023-10-30T08:45:10.112Z,1.70
2023-10-30T08:47:40.098Z,2.05
2023-10-30T08:50:10.302Z,1.50
2023-10-30T08:52:39.564Z,1.35
2023-10-30T08:55:09.556Z,1.88
2023-10-30T08:57:39.931Z,1.30
2023-10-30T09:00:09.829Z,1.50
2023-10-30T09:02:39.359Z,1.67
2023-10-30T09:05:08.862Z,1.50
2023-10-30T09:07:37.875Z,2.08
2023-10-30T09:10:08.045Z,1.63
2023-10-30T09:12:37.174Z,1.90
2023-10-30T09:15:09.946Z,2.17
2023-10-30T09:17:38.799Z,1.67
2023-10-30T09:20:13.212Z,1.92
2023-10-30T09:22:42.158Z,1.52
2023-10-30T09:25:11.409Z,1.67
2023-10-30T09:27:40.598Z,2.33
2023-10-30T09:30:11.975Z,1.70
2023-10-30T09:32:40.840Z,1.75
2023-10-30T09:35:10.625Z,1.40
2023-10-30T09:37:40.380Z,1.60
2023-10-30T09:40:10.444Z,1.52
2023-10-30T09:42:50.912Z,1.98
2023-10-30T09:45:23.291Z,1.35
2023-10-30T09:47:54.935Z,1.30
2023-10-30T09:50:25.158Z,1.30
2023-10-30T09:52:56.225Z,1.30
2023-10-30T09:55:26.419Z,1.20
2023-10-30T09:57:55.381Z,1.70
2023-10-30T10:00:27.025Z,1.55
2023-10-30T10:02:56.286Z,1.08
2023-10-30T10:05:25.317Z,1.17
2023-10-30T10:07:54.448Z,1.15
2023-10-30T10:10:23.760Z,1.30
2023-10-30T10:12:53.203Z,1.20
2023-10-30T10:15:22.785Z,1.20
2023-10-30T10:17:54.107Z,1.00
2023-10-30T10:20:24.072Z,1.23
2023-10-30T10:22:52.930Z,1.40
2023-10-30T10:25:22.566Z,1.02
2023-10-30T10:27:51.604Z,1.05
2023-10-30T10:30:25.896Z,0.90
2023-10-30T10:32:59.234Z,0.90
2023-10-30T10:35:28.203Z,1.02
2023-10-30T10:38:10.668Z,0.93
2023-10-30T10:40:40.107Z,0.93
2023-10-30T10:43:10.993Z,1.20
2023-10-30T10:45:42.289Z,1.02
2023-10-30T10:48:12.971Z,0.82
2023-10-30T10:50:43.922Z,0.75
2023-10-30T10:53:14.594Z,0.80
2023-10-30T10:55:45.476Z,0.90
2023-10-30T10:58:18.548Z,0.80
2023-10-30T11:00:49.408Z,0.95
2023-10-30T11:03:21.275Z,0.60
2023-10-30T11:05:53.089Z,0.90
2023-10-30T11:08:47.466Z,0.80
2023-10-30T11:11:21.876Z,0.77
2023-10-30T11:14:10.932Z,0.93
2023-10-30T11:16:47.271Z,0.80
2023-10-30T11:19:21.035Z,0.73
2023-10-30T11:21:50.842Z,0.60
2023-10-30T11:24:38.926Z,0.77
2023-10-30T11:27:36.976Z,0.50
2023-10-30T11:30:12.929Z,0.40
2023-10-30T11:32:58.320Z,0.70
2023-10-30T11:35:32.452Z,0.68
2023-10-30T11:38:01.521Z,0.47
2023-10-30T11:40:30.969Z,0.80
2023-10-30T11:42:59.967Z,0.40
2023-10-30T11:45:29.798Z,0.40
2023-10-30T11:48:01.938Z,0.52
2023-10-30T11:50:35.903Z,0.80
2023-10-30T11:53:12.102Z,0.75
2023-10-30T11:55:42.465Z,0.70
2023-10-30T11:58:12.095Z,0.63
2023-10-30T12:00:46.159Z,0.55
2023-10-30T12:03:16.056Z,0.60
2023-10-30T12:05:46.973Z,0.50
2023-10-30T12:08:16.171Z,0.55
2023-10-30T12:10:49.350Z,0.60
2023-10-30T12:13:18.505Z,0.57
2023-10-30T12:15:47.948Z,0.55
2023-10-30T12:18:16.795Z,0.28
2023-10-30T12:20:48.022Z,0.50
2023-10-30T12:23:19.681Z,0.50
2023-10-30T12:25:51.597Z,0.30
2023-10-30T12:28:21.344Z,0.55
2023-10-30T12:30:51.229Z,0.30
2023-10-30T12:33:23.618Z,0.60
2023-10-30T12:35:59.673Z,0.38
2023-10-30T12:38:28.568Z,0.47
2023-10-30T12:41:01.628Z,0.63
2023-10-30T12:43:31.427Z,0.43
2023-10-30T12:46:01.681Z,0.52
2023-10-30T12:48:30.707Z,0.32
2023-10-30T12:51:00.986Z,1.35
2023-10-30T12:53:30.843Z,0.32
2023-10-30T12:56:00.099Z,0.43
2023-10-30T12:58:28.811Z,0.50
2023-10-30T13:03:31.676Z,0.30
2023-10-30T13:06:02.485Z,0.50
2023-10-30T13:08:31.351Z,0.40
2023-10-30T13:11:00.566Z,0.40
2023-10-30T13:13:29.589Z,0.30
2023-10-30T13:15:58.539Z,0.40
2023-10-30T13:18:28.139Z,0.80
2023-10-30T13:20:56.946Z,0.73
2023-10-30T13:23:27.323Z,0.68
2023-10-30T13:25:56.750Z,0.80
2023-10-30T13:28:25.738Z,1.15
2023-10-30T13:30:56.577Z,0.40
2023-10-30T13:33:27.646Z,0.30
2023-10-30T13:35:56.644Z,0.50
2023-10-30T13:38:26.894Z,0.43
2023-10-30T13:40:56.743Z,0.40
2023-10-30T13:43:26.723Z,1.20
2023-10-30T13:45:55.832Z,0.40
2023-10-30T13:48:26.920Z,0.30
2023-10-30T13:50:55.947Z,0.30
2023-10-30T13:53:24.855Z,0.45
2023-10-30T13:55:55.800Z,0.40
2023-10-30T13:58:24.962Z,0.35
2023-10-30T14:00:54.255Z,0.50
2023-10-30T14:03:23.339Z,0.40
2023-10-30T14:05:53.227Z,0.73
2023-10-30T14:08:22.144Z,0.40
2023-10-30T14:10:51.076Z,0.40
2023-10-30T14:13:21.623Z,0.40
2023-10-30T14:15:50.508Z,0.30
2023-10-30T14:18:19.714Z,0.40
2023-10-30T14:20:48.729Z,0.55
2023-10-30T14:23:18.159Z,0.38
2023-10-30T14:25:47.462Z,0.57
2023-10-30T14:28:16.505Z,0.40
2023-10-30T14:30:47.516Z,0.40
2023-10-30T14:33:17.932Z,0.50
2023-10-30T14:35:48.162Z,0.30
2023-10-30T14:38:17.271Z,0.50
2023-10-30T14:40:47.286Z,0.60
2023-10-30T14:43:16.193Z,0.50
2023-10-30T14:45:46.575Z,0.70
2023-10-30T14:48:15.485Z,0.73
2023-10-30T14:50:44.474Z,0.70
2023-10-30T14:53:13.656Z,0.50
2023-10-30T14:55:42.538Z,0.90
2023-10-30T14:58:11.437Z,0.70
2023-10-30T15:00:40.379Z,0.57
2023-10-30T15:03:10.668Z,0.80
2023-10-30T15:05:40.241Z,0.82
2023-10-30T15:08:09.216Z,1.13
2023-10-30T15:10:38.010Z,0.90
2023-10-30T15:13:07.014Z,0.68
2023-10-30T15:15:35.936Z,0.82
2023-10-30T15:18:04.877Z,0.90
2023-10-30T15:20:35.211Z,0.85
2023-10-30T15:23:04.100Z,1.00
2023-10-30T15:25:32.970Z,1.05
2023-10-30T15:28:01.934Z,0.95
2023-10-30T15:30:32.257Z,1.20
2023-10-30T15:33:01.435Z,1.00
2023-10-30T15:35:30.321Z,2.15
2023-10-30T15:38:00.571Z,1.02
2023-10-30T15:40:29.846Z,0.95
2023-10-30T15:42:58.838Z,1.10
2023-10-30T15:45:28.497Z,1.00
2023-10-30T15:47:57.489Z,1.13
2023-10-30T15:50:26.689Z,1.40
2023-10-30T15:58:05.198Z,1.42
2023-10-30T16:00:34.861Z,1.38
2023-10-30T16:08:08.718Z,2.22
2023-10-30T16:10:39.058Z,1.75
2023-10-30T16:13:40.302Z,1.50
2023-10-30T16:15:58.532Z,1.75
2023-10-30T16:18:27.548Z,2.15
2023-10-30T16:23:30.559Z,2.03
2023-10-30T16:26:00.815Z,1.85
2023-10-30T16:28:30.039Z,2.00
2023-10-30T16:30:59.097Z,2.17
2023-10-30T16:33:27.908Z,1.40
2023-10-30T16:36:05.701Z,1.70
2023-10-30T16:38:34.716Z,1.70
2023-10-30T16:41:05.257Z,1.80
2023-10-30T16:43:34.137Z,1.65
2023-10-30T16:46:03.010Z,1.83
2023-10-30T16:48:31.947Z,1.80
2023-10-30T16:51:01.378Z,1.92
2023-10-30T16:53:30.394Z,1.85
2023-10-30T16:55:59.319Z,2.17
2023-10-30T16:58:29.477Z,2.20
2023-10-30T17:00:58.296Z,2.83
2023-10-30T17:03:27.146Z,2.55
2023-10-30T17:05:56.621Z,3.17
2023-10-30T17:08:25.774Z,2.83
2023-10-30T17:10:54.636Z,2.90
2023-10-30T17:13:23.466Z,3.30
2023-10-30T17:15:53.668Z,3.70
2023-10-30T17:18:27.353Z,3.70
2023-10-30T17:20:56.803Z,3.50
2023-10-30T17:23:25.716Z,3.50
2023-10-30T17:25:55.078Z,3.63
2023-10-30T17:28:24.395Z,3.38
2023-10-30T17:30:54.715Z,3.28
2023-10-30T17:33:23.722Z,3.42
2023-10-30T17:35:52.617Z,3.53
2023-10-30T17:38:21.498Z,3.53
2023-10-30T17:40:50.422Z,3.22
2023-10-30T17:43:19.413Z,3.58
2023-10-30T17:45:48.773Z,3.38
2023-10-30T17:48:19.195Z,3.47
2023-10-30T17:50:48.309Z,3.20
2023-10-30T17:53:17.758Z,3.67
2023-10-30T17:55:48.596Z,2.95
2023-10-30T17:58:17.613Z,3.80
2023-10-30T18:00:46.598Z,3.67
2023-10-30T18:03:15.634Z,3.25
2023-10-30T18:05:46.005Z,3.80
2023-10-30T18:08:14.970Z,3.60
2023-10-30T18:10:43.966Z,4.10
2023-10-30T18:13:13.100Z,3.78
2023-10-30T18:15:42.046Z,3.55
2023-10-30T18:18:11.061Z,3.22
2023-10-30T18:20:41.046Z,4.70
2023-10-30T18:23:11.311Z,4.05
2023-10-30T18:25:41.084Z,3.17
2023-10-30T18:28:16.163Z,4.00
2023-10-30T18:30:46.671Z,4.55
2023-10-30T18:33:15.599Z,4.00
2023-10-30T18:35:46.607Z,4.15
2023-10-30T18:38:18.786Z,4.30
2023-10-30T18:40:48.264Z,4.18
2023-10-30T18:43:20.829Z,4.07
2023-10-30T18:45:50.422Z,4.75
2023-10-30T18:48:19.668Z,4.38
2023-10-30T18:50:50.520Z,3.88
2023-10-30T18:53:21.376Z,4.65
2023-10-30T18:55:50.410Z,4.93
2023-10-30T18:58:19.450Z,4.57
2023-10-30T19:00:48.242Z,4.70
2023-10-30T19:03:17.293Z,5.40
2023-10-30T19:05:46.412Z,4.47
2023-10-30T19:08:16.865Z,5.43
2023-10-30T19:10:47.910Z,4.75
2023-10-30T19:13:16.993Z,5.53
2023-10-30T19:15:45.888Z,5.68
2023-10-30T19:18:14.829Z,6.82
2023-10-30T19:20:44.043Z,6.18
2023-10-30T19:23:13.516Z,7.18
2023-10-30T19:25:42.659Z,6.72
2023-10-30T19:28:12.544Z,7.40
2023-10-30T19:30:42.538Z,7.50
2023-10-30T19:33:11.525Z,7.45
2023-10-30T19:35:40.690Z,6.72
2023-10-30T19:38:10.976Z,7.18
2023-10-30T19:40:41.368Z,6.20
2023-10-30T19:43:12.409Z,6.38
2023-10-30T19:45:42.801Z,6.00
2023-10-30T19:48:11.945Z,6.70
2023-10-30T19:50:41.974Z,5.47
2023-10-30T19:53:11.746Z,5.68
2023-10-30T19:55:40.764Z,6.30
2023-10-30T19:58:10.784Z,7.13
2023-10-30T20:00:40.112Z,6.95
2023-10-30T20:03:10.575Z,5.90
2023-10-30T20:05:39.435Z,6.03
2023-10-30T20:08:09.005Z,5.82
2023-10-30T20:10:38.720Z,6.28
2023-10-30T20:13:07.959Z,5.35
2023-10-30T20:15:36.820Z,5.07
2023-10-30T20:18:05.980Z,4.20
2023-10-30T20:20:36.223Z,3.90
2023-10-30T20:23:05.069Z,4.20
2023-10-30T20:25:35.015Z,4.20
2023-10-30T20:28:04.000Z,4.20
2023-10-30T20:30:32.864Z,3.80
2023-10-30T20:33:01.692Z,3.55
2023-10-30T20:35:30.898Z,3.40
2023-10-30T20:38:01.761Z,3.10
2023-10-30T20:40:30.645Z,3.30
2023-10-30T20:43:00.836Z,3.50
2023-10-30T20:45:29.708Z,4.22
2023-10-30T20:47:58.610Z,3.45
2023-10-30T20:50:27.783Z,3.50
2023-10-30T20:52:56.688Z,3.70
2023-10-30T20:55:26.683Z,3.65
2023-10-30T20:57:55.603Z,3.80
2023-10-30T21:00:24.163Z,3.65
2023-10-30T21:02:52.903Z,3.78
2023-10-30T21:05:21.976Z,3.83
2023-10-30T21:07:50.528Z,3.58
2023-10-30T21:10:18.967Z,3.80
2023-10-30T21:12:48.705Z,3.40
2023-10-30T21:15:17.272Z,3.20
2023-10-30T21:17:45.690Z,3.10
2023-10-30T21:20:14.198Z,3.50
2023-10-30T21:22:42.753Z,3.28
2023-10-30T21:25:11.205Z,3.15
2023-10-30T21:27:40.805Z,2.85
2023-10-30T21:30:11.707Z,3.40
2023-10-30T21:32:40.234Z,3.53
2023-10-30T21:35:09.485Z,3.38
2023-10-30T21:37:37.987Z,3.05
2023-10-30T21:40:08.296Z,3.33
2023-10-30T21:42:37.181Z,3.40
2023-10-30T21:45:06.617Z,3.22
2023-10-30T21:47:36.526Z,3.17
2023-10-30T21:50:05.426Z,3.33
2023-10-30T21:52:33.955Z,3.20
2023-10-30T21:55:02.456Z,3.05
2023-10-30T21:57:31.880Z,3.10
2023-10-30T22:00:00.611Z,3.08
2023-10-30T22:02:29.861Z,3.05
2023-10-30T22:04:59.838Z,2.80
2023-10-30T22:07:28.300Z,2.80
2023-10-30T22:09:56.731Z,2.50
2023-10-30T22:12:25.199Z,1.92
2023-10-30T22:14:54.030Z,1.70
2023-10-30T22:17:22.785Z,1.40
2023-10-30T22:19:51.299Z,1.30
2023-10-30T22:22:21.115Z,1.63
2023-10-30T22:24:49.563Z,1.30
2023-10-30T22:27:18.022Z,1.10
2023-10-30T22:29:46.608Z,0.90
2023-10-30T22:32:15.016Z,1.20
2023-10-30T22:34:43.557Z,1.00
2023-10-30T22:37:12.046Z,1.33
2023-10-30T22:39:42.004Z,1.00
2023-10-30T22:42:10.419Z,1.20
2023-10-30T22:44:39.096Z,0.70
2023-10-30T22:47:07.628Z,0.80
2023-10-30T22:49:36.080Z,0.60
2023-10-30T22:52:04.837Z,0.70
2023-10-30T22:54:33.315Z,0.40
2023-10-30T22:57:03.182Z,0.40
2023-10-30T22:59:31.641Z,0.32
2023-10-30T23:02:00.446Z,0.30
2023-10-30T23:04:29.309Z,0.22
2023-10-30T23:06:57.951Z,0.32
2023-10-30T23:09:26.875Z,0.30
2023-10-30T23:11:55.307Z,0.32
2023-10-30T23:14:25.090Z,0.40
2023-10-30T23:16:53.564Z,0.30
2023-10-30T23:19:22.349Z,0.30
2023-10-30T23:21:50.794Z,0.50
2023-10-30T23:24:19.242Z,0.30
2023-10-30T23:26:47.736Z,0.30
2023-10-30T23:29:16.156Z,0.30
2023-10-30T23:31:46.223Z,0.90
2023-10-30T23:34:14.903Z,1.02
2023-10-30T23:36:43.383Z,1.40
2023-10-30T23:39:11.881Z,1.42
2023-10-30T23:41:41.997Z,1.40
2023-10-30T23:44:10.628Z,1.35
2023-10-30T23:46:41.604Z,1.20
2023-10-30T23:49:11.748Z,0.88
2023-10-30T23:51:40.262Z,0.80
2023-10-30T23:54:09.395Z,0.70
2023-10-30T23:56:37.846Z,0.80
2023-10-30T23:59:06.378Z,0.80
